02:14 Rennrad Tschirgantrunde mittel
Ort Moetz Datum 20.07.2015 11:45:51
Kategorie Rennrad
Distanz 66,69 Kilometer Steigung 604,0 Meter Gefälle -604,3 Meter
Gesamt Zeit 02:13:46 Aktiv 02:13:46 Pause 00:00:00
Durchs. Tempo 29,9 km/h Tempo max. 66,4 km/h Tempo min. 14,4 km/h
Kalorien 0 Durchs. HF 128 BPM HF max. 158 BPM
Wetter 25 °C ChanceThunder Min/Max: 24,1 °C/28,4 °C; Druck: 1013,9 mbar; Rel. Feuchte: 64,3%; Taupunkt: 18,2 °C; Windgeschwindigkeit: 3,2 km/h; Niederschlag: 0,0mm
Ausrüstung Bontrager - RXL Road
Continental - Grand Prix 4000 S
Poison - Rennrad
Shimano - HG CN-7901 Dura Ace
Notiz Moetz - Imst - Nassereith - Holzleitensattel - Barwies - Telfs - Moetz ... trocken, ziemlich warm, bis Imst wechselnder Wind, im Gurgltal bis Telfs starker Gegenwind, ab Telfs wieder wechselnder Wind, locker bis flott (2,6) ... garmin connect
Splits
Distanz (km) Gesamt Zeit Split Zeit Split Tempo Split Tempo Höhenprofil (m)
1,00 00:02:16 00:02:16 00:02:17 26,4 -9,86
2,00 00:04:19 00:02:03 00:02:03 29,3 2,02
3,00 00:06:11 00:01:52 00:01:52 32,0 7,85
4,00 00:08:08 00:01:56 00:01:57 30,8 9,35
5,00 00:10:19 00:02:11 00:02:11 27,4 5,50
6,00 00:12:12 00:01:52 00:01:53 31,9 5,90
7,00 00:14:07 00:01:55 00:01:55 31,2 1,20
8,00 00:15:59 00:01:51 00:01:51 32,4 7,17
9,00 00:17:50 00:01:51 00:01:51 32,3 3,38
10,00 00:19:51 00:02:01 00:02:01 29,7 17,29
11,00 00:22:32 00:02:41 00:02:41 22,4 25,89
12,00 00:24:17 00:01:44 00:01:45 34,3 1,43
13,00 00:26:12 00:01:54 00:01:55 31,4 -1,02
14,00 00:27:41 00:01:29 00:01:30 40,1 -14,19
15,00 00:30:32 00:02:50 00:02:50 21,1 46,51
16,00 00:34:13 00:03:41 00:03:41 16,3 52,22
17,00 00:36:50 00:02:36 00:02:37 22,9 0,83
18,00 00:37:55 00:01:04 00:01:05 55,7 -31,57
19,00 00:39:08 00:01:13 00:01:14 49,0 -19,94
20,00 00:40:19 00:01:10 00:01:10 51,2 -31,26
21,00 00:43:06 00:02:47 00:02:47 21,5 34,04
22,00 00:45:40 00:02:34 00:02:34 23,4 24,34
23,00 00:48:40 00:02:59 00:03:00 20,0 48,15
24,00 00:50:34 00:01:54 00:01:54 31,6 -2,78
25,00 00:52:12 00:01:38 00:01:38 36,6 -18,75
26,00 00:53:45 00:01:33 00:01:33 38,6 -14,51
27,00 00:55:57 00:02:11 00:02:12 27,3 17,23
28,00 00:58:01 00:02:03 00:02:04 29,1 3,38
29,00 00:59:46 00:01:45 00:01:46 34,1 -2,81
30,00 01:01:51 00:02:04 00:02:05 28,9 2,35
31,00 01:03:43 00:01:51 00:01:52 32,1 3,67
32,00 01:06:01 00:02:17 00:02:18 26,1 8,19
33,00 01:07:57 00:01:55 00:01:56 31,0 -12,16
34,00 01:09:34 00:01:37 00:01:37 37,0 -9,22
35,00 01:12:54 00:03:19 00:03:20 18,0 45,40
36,00 01:17:00 00:04:06 00:04:06 14,6 57,66
37,00 01:20:56 00:03:56 00:03:56 15,2 50,21
38,00 01:24:54 00:03:57 00:03:57 15,2 57,56
39,00 01:28:21 00:03:27 00:03:27 17,4 36,56
40,00 01:31:26 00:03:05 00:03:05 19,4 29,40
41,00 01:34:37 00:03:11 00:03:11 18,8 28,34
42,00 01:35:44 00:01:06 00:01:07 53,9 -60,18
43,00 01:36:47 00:01:03 00:01:03 57,0 -46,64
44,00 01:38:07 00:01:19 00:01:19 45,4 -26,12
45,00 01:39:16 00:01:09 00:01:09 52,0 -48,86
46,00 01:40:18 00:01:02 00:01:03 57,6 -39,71
47,00 01:42:10 00:01:51 00:01:51 32,3 -17,63
48,00 01:44:04 00:01:54 00:01:55 31,4 -5,21
49,00 01:45:47 00:01:42 00:01:43 35,1 -5,44
50,00 01:47:22 00:01:35 00:01:35 37,9 -15,66
51,00 01:48:36 00:01:13 00:01:14 48,8 -40,69
52,00 01:49:46 00:01:10 00:01:11 50,9 -33,35
53,00 01:51:02 00:01:15 00:01:16 47,4 -30,87
54,00 01:52:23 00:01:20 00:01:20 44,8 -42,75
55,00 01:53:29 00:01:06 00:01:06 54,2 -53,32
56,00 01:55:10 00:01:40 00:01:41 35,8 -23,72
57,00 01:57:07 00:01:56 00:01:57 30,8 -0,94
58,00 01:58:51 00:01:44 00:01:44 34,5 2,04
59,00 02:00:29 00:01:38 00:01:38 36,6 2,61
60,00 02:02:17 00:01:47 00:01:48 33,4 6,69
61,00 02:03:52 00:01:34 00:01:35 37,9 1,52
62,00 02:05:33 00:01:40 00:01:41 35,8 -1,94
63,00 02:07:12 00:01:38 00:01:39 36,4 1,61
64,00 02:08:51 00:01:39 00:01:39 36,3 3,98
65,00 02:10:30 00:01:39 00:01:39 36,3 0,03
66,00 02:12:15 00:01:45 00:01:45 34,2 -0,27
66,72 02:13:44 00:01:28 00:02:04 29,1 9,96